Portada
METAR-TAF:

METAR-TAF

Aeroports :

Gaya, Índia

latitud: 24-44-40N, longitud: 84-57-04E, altitud: 116 m

Observació

L'informe es va fer fa 30 minuts, a les 09:00 UTC
Vent 5 kt del Sud-Est
Temperatura 37°C
Humitat 57%
Pressió 997 hPa
Visibilitat: 6000 m
Núvols disperses a una alçada de 1800 ft
Núvols disperses a una alçada de 2500 ft

METAR: VEGY 050900Z 14005KT 6000 SCT018 SCT025 37/27 Q0997 NOSIG

Hora: 15:00 (09:30 UTC)

Pronòstic

L'informe es va fer fa 1 hora i 30 minuts, a les 08:00 UTC
Pronòstic vàlid del 05 a les 09 UTC al 05 a les 18 UTC
Vent 10 kt del Est/Sud-Est
Visibilitat: 6000 m
Núvols disperses a una alçada de 1800 ft
Núvols disperses a una alçada de 2500 ft
Evolucionant progressivament
l' 05 a les 14 UTC al 05 a les 16 UTC
Visibilitat: 4000 m
Núvols disperses a una alçada de 1800 ft
Cel ennuvolat a una alçada de 10000 ft
pluja, calitja

TAF: VEGY 050800Z 0509/0518 11010KT 6000 SCT018 SCT025 BECMG 0514/0516 4000 -RA HZ SCT018 BKN100

Observacions i pronòstics meteorològics de més de 4000 aeroports (METAR i TAF).

Les estacions disponibles són els punts grocs i vermells al mapa.

Posi el ratolí al punt desitjat per veure el nom de l'estació.

Feu clic per veure les observacions i els pronòstics meteorològics.

Per canviar el mapa: feu clic els botons verds amb una creu de color negre per apropar; al botó verd amb un guió per allunyar la imatge; o en les fletxes verdes per a mapes adjacents.


METAR-TAF: